Time;durP1;ratioP1;P1;durP2;ratioP2;P2;SDS_P1;SDS_P2;PMS_P1;PMS_P2;Temp;Humidity;BMP_temperature;BMP_pressure;BME280_temperature;BME280_humidity;BME280_pressure;Samples;Min_cycle;Max_cycle;Signal;HPM_P1;HPM_P2
2021/10/16 00:02:13;;;;;;;54.73;24.10;;;;;;;9.24;100.00;99266.77;1595060;89;21029;-73
2021/10/16 00:04:43;;;;;;;40.52;23.95;;;;;;;9.26;100.00;99263.69;1593308;89;21483;-73
2021/10/16 00:07:11;;;;;;;41.75;23.85;;;;;;;9.28;100.00;99263.25;1592782;88;20992;-73
2021/10/16 00:09:39;;;;;;;39.40;23.32;;;;;;;9.30;100.00;99258.87;1593255;89;21149;-72
2021/10/16 00:12:08;;;;;;;37.98;23.07;;;;;;;9.30;100.00;99258.87;1590993;88;21571;-72
2021/10/16 00:14:36;;;;;;;36.25;23.07;;;;;;;9.32;100.00;99245.27;1593864;88;21731;-72
2021/10/16 00:17:06;;;;;;;32.13;22.95;;;;;;;9.34;100.00;99250.53;1594702;89;21440;-72
2021/10/16 00:19:34;;;;;;;37.45;22.55;;;;;;;9.34;100.00;99251.41;1573438;90;21024;-72
2021/10/16 00:22:02;;;;;;;32.98;21.75;;;;;;;9.37;100.00;99249.22;1588893;88;21132;-73
2021/10/16 00:24:31;;;;;;;35.73;21.40;;;;;;;9.37;100.00;99246.14;1594542;88;21459;-73
2021/10/16 00:26:59;;;;;;;32.45;21.10;;;;;;;9.38;100.00;99244.39;1594732;88;21540;-73
2021/10/16 00:29:30;;;;;;;51.30;22.67;;;;;;;9.39;100.00;99244.83;1594546;88;20896;-72
2021/10/16 00:32:00;;;;;;;39.30;21.52;;;;;;;9.41;100.00;99245.70;1596713;89;20984;-73
2021/10/16 00:34:27;;;;;;;29.42;20.72;;;;;;;9.40;100.00;99242.64;1582045;88;21167;-73
2021/10/16 00:36:55;;;;;;;36.03;20.90;;;;;;;9.42;100.00;99235.61;1596046;90;21009;-73
2021/10/16 00:39:26;;;;;;;32.13;20.65;;;;;;;9.42;100.00;99237.81;1596878;90;21045;-73
2021/10/16 00:41:56;;;;;;;32.80;20.75;;;;;;;9.42;100.00;99226.40;1595852;88;21480;-73
2021/10/16 00:44:25;;;;;;;32.13;20.92;;;;;;;9.42;100.00;99224.64;1594936;88;21459;-73
2021/10/16 00:46:56;;;;;;;31.45;20.57;;;;;;;9.41;100.00;99224.20;1594929;89;21123;-73
2021/10/16 00:49:25;;;;;;;33.10;20.48;;;;;;;9.41;100.00;99228.16;1594892;88;20900;-72
2021/10/16 00:51:53;;;;;;;32.28;22.02;;;;;;;9.41;100.00;99227.28;1593852;89;21021;-72
2021/10/16 00:54:21;;;;;;;37.63;21.37;;;;;;;9.39;100.00;99224.64;1591975;89;21036;-72
2021/10/16 00:56:51;;;;;;;32.30;21.17;;;;;;;9.39;100.00;99222.02;1594754;89;20945;-72
2021/10/16 00:59:20;;;;;;;36.20;21.12;;;;;;;9.41;100.00;99224.20;1592005;90;21452;-72
2021/10/16 01:01:48;;;;;;;31.10;20.30;;;;;;;9.38;100.00;99219.38;1594589;89;20908;-72
2021/10/16 01:04:15;;;;;;;34.92;19.55;;;;;;;9.35;100.00;99214.12;1595195;88;20940;-73
2021/10/16 01:06:47;;;;;;;28.92;19.65;;;;;;;9.29;100.00;99216.75;1594164;88;21492;-72
2021/10/16 01:09:15;;;;;;;34.75;19.65;;;;;;;9.22;100.00;99218.95;1595199;88;21072;-73
2021/10/16 01:12:01;;;;;;;27.30;19.45;;;;;;;9.14;100.00;99213.23;1597243;87;21159;-72
2021/10/16 01:14:26;;;;;;;28.45;19.45;;;;;;;9.05;100.00;99205.78;1598561;87;20948;-72
2021/10/16 01:16:56;;;;;;;30.08;19.35;;;;;;;8.97;100.00;99207.05;1596408;88;21500;-73
2021/10/16 01:19:23;;;;;;;29.20;18.82;;;;;;;8.93;100.00;99205.73;1594089;90;21111;-72
2021/10/16 01:21:52;;;;;;;26.93;18.70;;;;;;;8.86;100.00;99194.33;1594096;89;21028;-72
2021/10/16 01:24:21;;;;;;;27.98;18.50;;;;;;;8.81;100.00;99199.58;1594044;90;21969;-72
2021/10/16 01:26:50;;;;;;;32.30;21.07;;;;;;;8.81;100.00;99199.58;1600220;88;20929;-72
2021/10/16 01:29:24;;;;;;;33.50;20.82;;;;;;;8.78;100.00;99199.58;1601638;88;21036;-72
2021/10/16 01:31:54;;;;;;;33.90;21.20;;;;;;;8.73;100.00;99195.19;1599388;89;21484;-72
2021/10/16 01:34:23;;;;;;;35.80;22.73;;;;;;;8.74;100.00;99194.31;1601565;88;20952;-72
2021/10/16 01:36:51;;;;;;;33.53;21.50;;;;;;;8.74;100.00;99193.87;1601741;89;21135;-72
2021/10/16 01:39:22;;;;;;;36.83;22.75;;;;;;;8.76;100.00;99202.64;1601262;89;21514;-72
2021/10/16 01:41:51;;;;;;;33.67;22.95;;;;;;;8.76;100.00;99201.33;1581632;89;21458;-71
2021/10/16 01:44:20;;;;;;;41.23;23.62;;;;;;;8.78;100.00;99206.59;1591369;89;20924;-72
2021/10/16 01:46:48;;;;;;;36.63;23.65;;;;;;;8.78;100.00;99211.41;1599344;88;21526;-72
2021/10/16 01:49:20;;;;;;;35.17;23.10;;;;;;;8.79;100.00;99207.03;1579000;89;22307;-73
2021/10/16 01:51:49;;;;;;;83.58;27.67;;;;;;;8.82;100.00;99210.55;1600092;88;20952;-72
2021/10/16 01:54:23;;;;;;;40.05;23.25;;;;;;;8.86;100.00;99213.18;1601847;88;21056;-72
2021/10/16 01:56:56;;;;;;;37.13;23.00;;;;;;;8.86;100.00;99210.11;1601682;88;21443;-72
2021/10/16 01:59:25;;;;;;;35.20;23.47;;;;;;;8.89;100.00;99209.23;1601842;88;20963;-73
2021/10/16 02:02:13;;;;;;;35.08;23.73;;;;;;;8.90;100.00;99211.87;1600677;88;21458;-73
2021/10/16 02:04:43;;;;;;;38.70;23.15;;;;;;;8.89;100.00;99204.85;1594576;88;21412;-72
2021/10/16 02:07:11;;;;;;;32.60;22.93;;;;;;;8.87;100.00;99202.66;1601624;88;20984;-72
2021/10/16 02:09:39;;;;;;;34.92;22.05;;;;;;;8.85;100.00;99193.89;1581139;89;20996;-69
2021/10/16 02:12:08;;;;;;;33.15;21.40;;;;;;;8.78;100.00;99194.75;1601717;89;20972;-70
2021/10/16 02:14:38;;;;;;;30.97;20.62;;;;;;;8.70;100.00;99189.48;1599454;88;21180;-69
2021/10/16 02:17:07;;;;;;;36.60;20.88;;;;;;;8.66;100.00;99185.53;1596095;87;20901;-71
2021/10/16 02:19:36;;;;;;;29.70;20.32;;;;;;;8.61;100.00;99178.95;1596750;88;20985;-71
2021/10/16 02:22:04;;;;;;;33.28;21.00;;;;;;;8.58;100.00;99168.86;1577342;89;21005;-71
2021/10/16 02:24:32;;;;;;;27.62;18.55;;;;;;;8.53;100.00;99166.22;1594365;89;21021;-71
2021/10/16 02:27:02;;;;;;;29.48;19.57;;;;;;;8.50;100.00;99170.13;1597195;89;21134;-71
2021/10/16 02:29:30;;;;;;;27.05;18.15;;;;;;;8.47;100.00;99167.05;1592543;88;20925;-71
2021/10/16 02:32:06;;;;;;;26.37;18.15;;;;;;;8.46;100.00;99171.87;1591334;88;20989;-71
2021/10/16 02:34:35;;;;;;;26.87;18.48;;;;;;;8.46;100.00;99170.55;1593092;88;20928;-71
2021/10/16 02:37:06;;;;;;;26.95;18.15;;;;;;;8.48;100.00;99173.19;1594582;88;20981;-72
2021/10/16 02:39:36;;;;;;;26.30;18.05;;;;;;;8.49;100.00;99173.62;1594595;89;21088;-72
2021/10/16 02:42:04;;;;;;;27.87;17.30;;;;;;;8.49;100.00;99170.56;1597495;87;20982;-71
2021/10/16 02:44:34;;;;;;;42.25;18.87;;;;;;;8.56;100.00;99170.61;1577236;88;20961;-71
2021/10/16 02:47:04;;;;;;;27.30;17.52;;;;;;;8.61;100.00;99165.80;1594221;89;21527;-71
2021/10/16 02:49:33;;;;;;;24.72;17.05;;;;;;;8.66;100.00;99157.48;1594483;90;21054;-72
2021/10/16 02:52:01;;;;;;;24.77;17.37;;;;;;;8.72;100.00;99165.81;1594384;88;21120;-71
2021/10/16 02:54:29;;;;;;;26.02;17.95;;;;;;;8.78;100.00;99172.40;1579083;90;21440;-71
2021/10/16 02:56:59;;;;;;;24.40;16.93;;;;;;;8.83;100.00;99172.84;1594566;88;20981;-71
2021/10/16 02:59:27;;;;;;;26.40;17.57;;;;;;;8.90;100.00;99174.16;1594751;89;20984;-71
2021/10/16 03:01:57;;;;;;;23.75;16.73;;;;;;;8.94;100.00;99179.42;1594306;88;21587;-71
2021/10/16 03:04:26;;;;;;;25.82;17.82;;;;;;;9.00;100.00;99177.27;1595177;89;21180;-72
2021/10/16 03:06:55;;;;;;;28.25;18.70;;;;;;;9.04;100.00;99182.97;1594597;89;21681;-71
2021/10/16 03:09:23;;;;;;;25.88;16.80;;;;;;;9.06;100.00;99182.09;1600025;87;20986;-71
2021/10/16 03:11:51;;;;;;;26.42;18.40;;;;;;;9.09;100.00;99169.38;1598337;88;20992;-72
2021/10/16 03:14:19;;;;;;;27.30;19.05;;;;;;;9.11;100.00;99172.89;1601263;88;21017;-72
2021/10/16 03:16:50;;;;;;;25.12;17.73;;;;;;;9.12;100.00;99172.02;1581127;89;21864;-72
2021/10/16 03:19:20;;;;;;;27.32;17.57;;;;;;;9.11;100.00;99181.66;1577925;90;21512;-73
2021/10/16 03:21:50;;;;;;;25.15;16.90;;;;;;;9.12;100.00;99179.47;1586834;90;21478;-70
2021/10/16 03:24:19;;;;;;;23.73;17.23;;;;;;;9.10;100.00;99173.33;1586830;89;20936;-71
2021/10/16 03:26:49;;;;;;;22.45;16.90;;;;;;;9.12;100.00;99168.06;1583888;90;20988;-72
2021/10/16 03:29:17;;;;;;;23.60;16.00;;;;;;;9.12;100.00;99159.73;1587171;88;21100;-72
2021/10/16 03:31:45;;;;;;;24.70;16.50;;;;;;;9.15;100.00;99161.48;1562396;89;21012;-72
2021/10/16 03:34:13;;;;;;;24.12;17.25;;;;;;;9.18;100.00;99157.97;1546780;91;20993;-72
2021/10/16 03:36:41;;;;;;;26.15;17.17;;;;;;;9.20;100.00;99161.48;1553792;89;21004;-72
2021/10/16 03:39:09;;;;;;;28.45;19.25;;;;;;;9.18;100.00;99160.17;1590440;88;20965;-72
2021/10/16 03:41:37;;;;;;;23.50;17.17;;;;;;;9.15;100.00;99157.09;1569047;90;21807;-71
2021/10/16 03:44:05;;;;;;;27.50;17.45;;;;;;;9.14;100.00;99158.41;1565944;90;20962;-72
2021/10/16 03:46:35;;;;;;;38.08;17.32;;;;;;;9.11;100.00;99156.66;1565853;90;21026;-70
2021/10/16 03:49:04;;;;;;;25.90;16.60;;;;;;;9.11;100.00;99163.68;1563776;90;20960;-72
2021/10/16 03:51:32;;;;;;;22.60;16.17;;;;;;;9.13;100.00;99174.64;1566618;89;21007;-71
2021/10/16 03:54:01;;;;;;;23.30;15.83;;;;;;;9.19;100.00;99176.39;1549344;90;21137;-72
2021/10/16 03:56:30;;;;;;;20.82;15.45;;;;;;;9.23;100.00;99176.83;1561878;90;21043;-71
2021/10/16 03:58:58;;;;;;;25.15;16.80;;;;;;;9.24;100.00;99170.69;1589223;88;21029;-71
2021/10/16 04:01:29;;;;;;;22.00;16.62;;;;;;;9.27;100.00;99168.05;1577942;90;20928;-72
2021/10/16 04:03:57;;;;;;;30.55;16.30;;;;;;;9.31;100.00;99172.44;1589621;89;21482;-72
2021/10/16 04:06:26;;;;;;;23.45;15.60;;;;;;;9.35;100.00;99172.00;1592106;89;21419;-72
2021/10/16 04:08:54;;;;;;;24.20;16.07;;;;;;;9.37;100.00;99161.03;1590548;88;20928;-72
2021/10/16 04:11:24;;;;;;;22.82;15.83;;;;;;;9.38;100.00;99158.39;1571366;89;21436;-73
2021/10/16 04:13:54;;;;;;;23.00;15.70;;;;;;;9.38;100.00;99155.76;1587642;88;20988;-73
2021/10/16 04:16:23;;;;;;;20.62;15.88;;;;;;;9.39;100.00;99154.87;1591002;88;21035;-73
2021/10/16 04:18:52;;;;;;;19.35;15.00;;;;;;;9.40;100.00;99154.44;1596171;88;21115;-72
2021/10/16 04:21:20;;;;;;;22.90;15.30;;;;;;;9.41;100.00;99157.07;1593544;88;20985;-72
2021/10/16 04:23:50;;;;;;;18.25;15.00;;;;;;;9.43;100.00;99164.97;1595830;89;21021;-72
2021/10/16 04:26:19;;;;;;;20.00;14.83;;;;;;;9.45;100.00;99160.58;1594189;89;21519;-72
2021/10/16 04:28:47;;;;;;;20.70;14.85;;;;;;;9.46;100.00;99159.73;1595448;87;21042;-64
2021/10/16 04:31:19;;;;;;;;;;;;;;;9.49;100.00;99154.45;1595836;89;21131;-71
2021/10/16 04:33:47;;;;;;;20.30;14.73;;;;;;;9.53;100.00;99157.96;1593701;90;20461;-71
2021/10/16 04:36:15;;;;;;;19.23;14.93;;;;;;;9.54;100.00;99153.13;1581488;89;20940;-70
2021/10/16 04:38:46;;;;;;;21.00;15.80;;;;;;;9.55;100.00;99149.17;1594450;89;21514;-70
2021/10/16 04:41:13;;;;;;;22.32;15.95;;;;;;;9.56;100.00;99146.98;1594199;89;20973;-71
2021/10/16 04:43:41;;;;;;;20.23;15.60;;;;;;;9.56;100.00;99152.25;1594347;89;21112;-71
2021/10/16 04:46:13;;;;;;;23.00;16.67;;;;;;;9.56;100.00;99151.38;1594236;88;20929;-71
2021/10/16 04:48:42;;;;;;;;;;;;;;;9.57;100.00;99151.37;1577614;90;20973;-71
2021/10/16 04:51:13;;;;;;;22.93;15.13;;;;;;;9.57;100.00;99154.44;1594322;90;20107;-71
2021/10/16 04:53:41;;;;;;;21.20;16.42;;;;;;;9.57;100.00;99153.13;1575197;90;21112;-71
2021/10/16 04:56:09;;;;;;;27.85;18.23;;;;;;;9.56;100.00;99154.88;1594384;88;21118;-71
2021/10/16 04:58:40;;;;;;;33.10;22.73;;;;;;;9.56;100.00;99147.42;1594088;89;21024;-70
2021/10/16 05:01:08;;;;;;;39.80;23.98;;;;;;;9.59;100.00;99145.66;1593943;90;21040;-70
2021/10/16 05:03:36;;;;;;;36.63;23.95;;;;;;;9.61;100.00;99150.48;1594068;90;21629;-70
2021/10/16 05:06:06;;;;;;;34.08;23.80;;;;;;;9.62;100.00;99147.41;1594192;90;20976;-71
2021/10/16 05:08:40;;;;;;;40.00;23.87;;;;;;;9.62;100.00;99152.23;1594148;89;21456;-63
2021/10/16 05:11:08;;;;;;;41.37;22.73;;;;;;;9.63;100.00;99151.80;1594408;90;21556;-71
2021/10/16 05:13:36;;;;;;;33.10;22.60;;;;;;;9.63;100.00;99146.09;1575111;90;21029;-70
2021/10/16 05:16:04;;;;;;;29.80;23.32;;;;;;;9.64;100.00;99153.11;1594078;89;21471;-70
2021/10/16 05:18:35;;;;;;;35.17;22.25;;;;;;;9.64;100.00;99143.89;1595161;88;20892;-70
2021/10/16 05:21:04;;;;;;;32.53;21.87;;;;;;;9.65;100.00;99140.81;1603606;88;21806;-70
2021/10/16 05:23:32;;;;;;;30.97;22.00;;;;;;;9.65;100.00;99139.50;1603635;88;20960;-72
2021/10/16 05:26:00;;;;;;;31.73;20.60;;;;;;;9.66;100.00;99138.61;1585670;89;20935;-71
2021/10/16 05:28:28;;;;;;;31.20;21.05;;;;;;;9.69;100.00;99144.75;1602461;89;21518;-70
2021/10/16 05:30:57;;;;;;;31.35;21.85;;;;;;;9.73;100.00;99144.30;1603904;88;21044;-64
2021/10/16 05:33:25;;;;;;;33.80;22.07;;;;;;;9.76;100.00;99137.27;1603739;88;21491;-66
2021/10/16 05:35:54;;;;;;;41.68;20.20;;;;;;;9.78;100.00;99143.84;1603702;89;21469;-65
2021/10/16 05:38:23;;;;;;;29.25;20.17;;;;;;;9.79;100.00;99146.91;1603746;89;21050;-69
2021/10/16 05:40:51;;;;;;;30.68;21.35;;;;;;;9.81;100.00;99157.45;1603481;88;20924;-70
2021/10/16 05:43:19;;;;;;;35.85;23.25;;;;;;;9.83;100.00;99167.55;1581647;89;21449;-61
2021/10/16 05:45:47;;;;;;;52.48;33.33;;;;;;;9.83;100.00;99163.16;1592781;89;21095;-70
2021/10/16 05:48:14;;;;;;;51.15;32.85;;;;;;;9.84;100.00;99172.80;1592573;89;20999;-69
2021/10/16 05:50:42;;;;;;;39.53;25.68;;;;;;;9.86;100.00;99174.12;1603394;89;21087;-70
2021/10/16 05:53:11;;;;;;;28.60;20.72;;;;;;;9.85;100.00;99169.29;1585433;89;21222;-62
2021/10/16 05:55:38;;;;;;;32.05;21.25;;;;;;;9.86;100.00;99173.67;1585324;89;20932;-69
2021/10/16 05:58:06;;;;;;;50.17;28.65;;;;;;;9.89;100.00;99163.13;1603296;89;21119;-69
2021/10/16 06:00:34;;;;;;;43.33;26.62;;;;;;;9.91;100.00;99160.05;1585232;89;20943;-69
2021/10/16 06:03:02;;;;;;;38.33;24.72;;;;;;;9.91;100.00;99159.17;1603768;88;20960;-69
2021/10/16 06:05:31;;;;;;;39.65;24.65;;;;;;;9.92;100.00;99174.98;1602903;89;20924;-59
2021/10/16 06:08:00;;;;;;;37.17;24.00;;;;;;;9.93;100.00;99172.81;1601636;89;21454;-70
2021/10/16 06:10:28;;;;;;;34.33;21.80;;;;;;;9.93;100.00;99176.77;1603645;89;21118;-70
2021/10/16 06:12:56;;;;;;;32.15;21.60;;;;;;;9.94;100.00;99178.95;1603731;88;21443;-71
2021/10/16 06:15:24;;;;;;;44.73;27.10;;;;;;;9.94;100.00;99177.20;1603402;88;21451;-71
2021/10/16 06:17:56;;;;;;;344.00;222.60;;;;;;;9.96;100.00;99178.52;1600593;88;20955;-71
2021/10/16 06:20:29;;;;;;;237.72;128.97;;;;;;;9.97;100.00;99185.53;1579881;90;20936;-71
2021/10/16 06:22:54;;;;;;;154.15;78.57;;;;;;;9.99;100.00;99180.70;1570516;90;21113;-71
2021/10/16 06:25:22;;;;;;;106.12;56.53;;;;;;;10.05;100.00;99192.53;1547423;91;20978;-70
2021/10/16 06:27:50;;;;;;;79.53;45.10;;;;;;;10.08;100.00;99188.56;1575609;90;20988;-71
2021/10/16 06:30:18;;;;;;;66.10;36.83;;;;;;;10.10;100.00;99192.08;1594995;90;21590;-70
2021/10/16 06:32:47;;;;;;;53.35;31.70;;;;;;;10.15;100.00;99192.50;1593767;88;21621;-70
2021/10/16 06:35:14;;;;;;;42.23;27.65;;;;;;;10.15;100.00;99188.10;1594081;90;21076;-71
2021/10/16 06:37:43;;;;;;;47.67;26.48;;;;;;;10.18;100.00;99190.73;1566732;90;20976;-70
2021/10/16 06:40:12;;;;;;;44.60;28.70;;;;;;;10.20;100.00;99190.31;1574696;89;20908;-70
2021/10/16 06:42:40;;;;;;;45.78;28.95;;;;;;;10.23;100.00;99190.73;1596207;89;20992;-70
2021/10/16 06:45:32;;;;;;;50.25;31.60;;;;;;;10.26;100.00;99192.05;1595709;88;21006;-70
2021/10/16 06:48:00;;;;;;;61.42;34.08;;;;;;;10.33;100.00;99189.38;1589397;90;21095;-70
2021/10/16 06:50:44;;;;;;;56.13;31.50;;;;;;;10.37;100.00;99199.02;1577174;89;20956;-70
2021/10/16 06:53:12;;;;;;;55.52;32.90;;;;;;;10.41;100.00;99194.64;1569910;89;20893;-71
2021/10/16 06:55:41;;;;;;;78.87;44.65;;;;;;;10.43;100.00;99202.11;1568542;91;21058;-70
2021/10/16 06:58:10;;;;;;;93.80;50.40;;;;;;;10.46;100.00;99203.41;1569418;91;21536;-70
2021/10/16 07:00:39;;;;;;;179.75;86.67;;;;;;;10.47;100.00;99205.16;1568053;90;21482;-70
2021/10/16 07:03:13;;;;;;;171.43;85.40;;;;;;;10.49;100.00;99201.20;1561861;90;20975;-69
2021/10/16 07:05:40;;;;;;;149.50;74.80;;;;;;;10.51;100.00;99207.34;1564667;90;20934;-69
2021/10/16 07:08:08;;;;;;;123.13;64.50;;;;;;;10.53;100.00;99211.72;1564466;90;21059;-69
2021/10/16 07:10:39;;;;;;;141.25;68.92;;;;;;;10.53;100.00;99208.21;1564967;90;20950;-70
2021/10/16 07:13:09;;;;;;;130.82;66.53;;;;;;;10.55;100.00;99209.95;1578734;89;20891;-70
2021/10/16 07:15:37;;;;;;;115.28;60.03;;;;;;;10.56;100.00;99210.39;1592163;89;20935;-70
2021/10/16 07:18:05;;;;;;;111.62;56.60;;;;;;;10.59;100.00;99211.69;1592412;89;21456;-70
2021/10/16 07:20:33;;;;;;;102.78;55.40;;;;;;;10.65;100.00;99213.42;1596591;87;21463;-71
2021/10/16 07:23:01;;;;;;;77.53;43.68;;;;;;;10.67;100.00;99210.33;1599611;87;20980;-70
2021/10/16 07:25:29;;;;;;;67.35;38.23;;;;;;;10.70;100.00;99214.27;1598623;89;21083;-70
2021/10/16 07:27:57;;;;;;;73.92;41.18;;;;;;;10.72;100.00;99212.50;1599580;89;20953;-70
2021/10/16 07:30:25;;;;;;;89.03;44.55;;;;;;;10.75;100.00;99217.76;1598739;89;20984;-70
2021/10/16 07:32:52;;;;;;;87.00;43.73;;;;;;;10.78;100.00;99216.42;1599666;89;20976;-70
2021/10/16 07:35:20;;;;;;;78.17;45.60;;;;;;;10.81;100.00;99219.48;1600659;89;21542;-70
2021/10/16 07:37:48;;;;;;;85.60;47.30;;;;;;;10.83;100.00;99219.03;1599184;89;21032;-67
2021/10/16 07:40:16;;;;;;;74.45;40.43;;;;;;;10.87;100.00;99219.00;1599496;89;20916;-69
2021/10/16 07:42:44;;;;;;;73.07;45.75;;;;;;;10.92;100.00;99209.33;1598015;89;20924;-67
2021/10/16 07:45:12;;;;;;;70.50;44.33;;;;;;;10.96;100.00;99216.34;1598752;89;20916;-61
2021/10/16 07:47:40;;;;;;;67.32;36.40;;;;;;;11.00;100.00;99212.79;1598935;89;20997;-68
2021/10/16 07:50:08;;;;;;;53.00;33.15;;;;;;;11.03;100.00;99219.36;1594206;88;21823;-68
2021/10/16 07:52:37;;;;;;;61.70;36.45;;;;;;;11.07;100.00;99217.58;1598766;87;20941;-59
2021/10/16 07:55:06;;;;;;;71.28;39.85;;;;;;;11.09;100.00;99215.80;1598641;89;20993;-69
2021/10/16 07:57:36;;;;;;;71.60;43.05;;;;;;;11.13;100.00;99212.70;1581108;89;21476;-68
2021/10/16 08:00:06;;;;;;;87.62;47.93;;;;;;;11.15;100.00;99215.76;1600188;87;20930;-67
2021/10/16 08:02:35;;;;;;;90.70;51.93;;;;;;;11.18;100.00;99213.09;1601196;87;21185;-68
2021/10/16 08:05:04;;;;;;;101.80;53.00;;;;;;;11.25;100.00;99217.88;1600905;87;21728;-69
2021/10/16 08:07:32;;;;;;;89.47;51.37;;;;;;;11.29;100.00;99205.96;1600573;87;21526;-68
2021/10/16 08:10:00;;;;;;;88.00;51.75;;;;;;;11.33;100.00;99207.69;1596081;89;21460;-66
2021/10/16 08:12:28;;;;;;;67.55;40.33;;;;;;;11.37;100.00;99209.02;1596302;89;21034;-67
2021/10/16 08:14:55;;;;;;;51.45;31.55;;;;;;;11.40;100.00;99216.47;1596050;89;21868;-67
2021/10/16 08:17:23;;;;;;;57.75;36.13;;;;;;;11.41;100.00;99216.90;1596008;89;21561;-66
2021/10/16 08:19:51;;;;;;;60.58;37.90;;;;;;;11.43;100.00;99217.77;1567588;89;20998;-67
2021/10/16 08:22:18;;;;;;;63.65;40.08;;;;;;;11.43;100.00;99219.53;1564353;90;21007;-68
2021/10/16 08:24:46;;;;;;;63.48;37.98;;;;;;;11.44;100.00;99223.92;1567519;90;21550;-68
2021/10/16 08:27:14;;;;;;;66.72;40.52;;;;;;;11.46;100.00;99224.34;1568175;90;21115;-68
2021/10/16 08:29:42;;;;;;;78.62;45.95;;;;;;;11.49;100.00;99224.76;1567852;90;21040;-67
2021/10/16 08:32:09;;;;;;;85.30;49.08;;;;;;;11.50;100.00;99226.06;1568121;90;20932;-66
2021/10/16 08:34:37;;;;;;;73.42;43.63;;;;;;;11.50;100.00;99227.39;1567606;90;20932;-68
2021/10/16 08:37:05;;;;;;;69.30;41.58;;;;;;;11.48;100.00;99225.20;1566300;91;21003;-70
2021/10/16 08:39:33;;;;;;;49.77;32.50;;;;;;;11.44;100.00;99226.56;1567042;89;21109;-70
2021/10/16 08:42:01;;;;;;;40.00;25.82;;;;;;;11.41;100.00;99226.14;1566793;89;20967;-68
2021/10/16 08:44:31;;;;;;;32.48;21.50;;;;;;;11.39;100.00;99227.92;1566715;90;21559;-68
2021/10/16 08:46:58;;;;;;;30.02;20.70;;;;;;;11.38;100.00;99227.49;1566711;89;21588;-68
2021/10/16 08:49:29;;;;;;;26.50;19.17;;;;;;;11.34;100.00;99234.97;1561017;90;21637;-66
2021/10/16 08:51:57;;;;;;;31.27;19.32;;;;;;;11.37;100.00;99234.98;1555797;89;21146;-68
2021/10/16 08:54:27;;;;;;;25.32;18.77;;;;;;;11.38;100.00;99241.14;1563800;89;21049;-67
2021/10/16 08:56:54;;;;;;;23.47;19.10;;;;;;;11.35;100.00;99237.64;1568118;89;20963;-67
2021/10/16 08:59:22;;;;;;;25.20;18.92;;;;;;;11.36;100.00;99235.88;1567625;90;20984;-70
2021/10/16 09:02:06;;;;;;;23.60;18.80;;;;;;;11.34;100.00;99240.25;1567997;90;21518;-69
2021/10/16 09:04:35;;;;;;;24.50;18.15;;;;;;;11.33;100.00;99241.14;1567698;90;21107;-69
2021/10/16 09:07:21;;;;;;;23.50;16.93;;;;;;;11.34;100.00;99245.09;1568020;90;20920;-69
2021/10/16 09:09:50;;;;;;;21.75;17.52;;;;;;;11.38;100.00;99240.70;1567471;91;20988;-68
2021/10/16 09:12:18;;;;;;;22.50;17.17;;;;;;;11.39;100.00;99231.02;1567669;91;20904;-68
2021/10/16 09:14:49;;;;;;;22.75;17.52;;;;;;;11.40;100.00;99232.77;1566814;90;20924;-68
2021/10/16 09:17:17;;;;;;;24.05;16.75;;;;;;;11.37;100.00;99225.74;1567561;90;21091;-68
2021/10/16 09:19:46;;;;;;;25.48;17.57;;;;;;;11.38;100.00;99230.58;1577301;87;20981;-65
2021/10/16 09:22:19;;;;;;;35.98;17.55;;;;;;;11.37;100.00;99228.83;1598078;89;21503;-68
2021/10/16 09:24:49;;;;;;;22.48;16.62;;;;;;;11.38;100.00;99228.81;1597589;88;20968;-70
2021/10/16 09:27:24;;;;;;;22.30;16.05;;;;;;;11.36;100.00;99227.95;1596139;88;20935;-69
2021/10/16 09:30:02;;;;;;;23.87;16.62;;;;;;;11.39;100.00;99237.61;1597665;89;21103;-68
2021/10/16 09:32:31;;;;;;;20.43;15.63;;;;;;;11.39;100.00;99236.30;1596393;89;21498;-69
2021/10/16 09:35:05;;;;;;;19.87;15.65;;;;;;;11.35;100.00;99240.69;1597547;88;21668;-69
2021/10/16 09:37:33;;;;;;;23.10;14.73;;;;;;;11.32;100.00;99246.87;1586928;89;21566;-69
2021/10/16 09:40:02;;;;;;;20.90;15.13;;;;;;;11.31;100.00;99247.76;1596815;88;20983;-70
2021/10/16 09:42:44;;;;;;;20.88;15.55;;;;;;;11.31;100.00;99252.16;1597748;88;21119;-70
2021/10/16 09:45:14;;;;;;;19.42;14.47;;;;;;;11.29;100.00;99253.50;1596853;88;20972;-70
2021/10/16 09:47:54;;;;;;;19.05;14.53;;;;;;;11.29;100.00;99249.53;1598034;88;21547;-70
2021/10/16 09:50:22;;;;;;;22.07;17.27;;;;;;;11.32;100.00;99255.23;1593286;89;20904;-69
2021/10/16 09:52:51;;;;;;;26.93;18.52;;;;;;;11.32;100.00;99248.19;1596898;88;21467;-69
2021/10/16 09:55:18;;;;;;;27.00;19.17;;;;;;;11.31;100.00;99250.40;1594293;88;21058;-69
2021/10/16 09:57:48;;;;;;;25.82;19.50;;;;;;;11.28;100.00;99248.23;1592493;89;21472;-70
2021/10/16 10:00:16;;;;;;;26.45;18.80;;;;;;;11.26;100.00;99245.59;1591587;89;21002;-70
2021/10/16 10:02:47;;;;;;;28.98;20.72;;;;;;;11.25;100.00;99251.77;1592297;89;21057;-69
2021/10/16 10:05:17;;;;;;;22.00;18.02;;;;;;;11.28;100.00;99250.87;1591731;90;21023;-69
2021/10/16 10:07:44;;;;;;;20.68;15.72;;;;;;;11.31;100.00;99251.72;1575110;90;21130;-69
2021/10/16 10:10:12;;;;;;;19.82;15.60;;;;;;;11.32;100.00;99242.91;1592163;89;20980;-66
2021/10/16 10:12:39;;;;;;;21.37;16.50;;;;;;;11.29;100.00;99240.30;1574543;89;20905;-60
2021/10/16 10:15:10;;;;;;;22.90;17.80;;;;;;;11.24;100.00;99231.53;1574928;90;20937;-69
2021/10/16 10:17:39;;;;;;;20.75;16.95;;;;;;;11.22;100.00;99227.15;1591953;89;20980;-65
2021/10/16 10:20:12;;;;;;;21.90;16.42;;;;;;;11.19;100.00;99239.05;1594510;88;21459;-63
2021/10/16 10:22:48;;;;;;;28.85;17.17;;;;;;;11.18;100.00;99236.86;1584770;89;21499;-63
2021/10/16 10:25:25;;;;;;;25.45;18.15;;;;;;;11.22;100.00;99232.43;1575374;89;21475;-63
2021/10/16 10:27:56;;;;;;;22.17;17.55;;;;;;;11.25;100.00;99233.28;1603500;88;20927;-62
2021/10/16 10:30:40;;;;;;;29.10;19.73;;;;;;;11.26;100.00;99237.67;1584406;90;21494;-62
2021/10/16 10:33:21;;;;;;;26.87;20.27;;;;;;;11.27;100.00;99231.51;1592387;89;21135;-62
2021/10/16 10:36:09;;;;;;;29.32;21.60;;;;;;;11.27;100.00;99226.23;1600883;89;20952;-62
2021/10/16 10:38:43;;;;;;;27.70;19.35;;;;;;;11.26;100.00;99218.31;1603260;88;21011;-63
2021/10/16 10:41:31;;;;;;;24.40;18.65;;;;;;;11.25;100.00;99218.76;1602618;89;21525;-63
2021/10/16 10:44:00;;;;;;;31.15;20.32;;;;;;;11.26;100.00;99215.23;1603368;89;21526;-63
2021/10/16 10:46:28;;;;;;;24.50;18.48;;;;;;;11.27;100.00;99224.91;1603458;88;21821;-64
2021/10/16 10:49:10;;;;;;;51.75;29.85;;;;;;;11.30;100.00;99215.64;1605650;88;21439;-62
2021/10/16 10:51:39;;;;;;;;;;;;;;;11.33;100.00;99216.06;1605391;88;21000;-64
2021/10/16 10:54:21;;;;;;;29.42;20.52;;;;;;;11.38;100.00;99214.73;1603312;88;20095;-64
2021/10/16 10:56:58;;;;;;;21.90;15.80;;;;;;;11.41;100.00;99216.02;1603729;89;21470;-64
2021/10/16 10:59:22;;;;;;;53.60;28.17;;;;;;;11.44;100.00;99210.72;1603527;88;21102;-66
2021/10/16 11:01:54;;;;;;;27.70;19.30;;;;;;;11.47;100.00;99203.64;1584065;89;20996;-70
2021/10/16 11:04:42;;;;;;;23.70;15.78;;;;;;;11.48;100.00;99204.52;1604016;88;20988;-71
2021/10/16 11:07:14;;;;;;;45.65;25.70;;;;;;;11.46;100.00;99206.30;1602993;89;20983;-71
2021/10/16 11:09:42;;;;;;;40.05;24.82;;;;;;;11.48;100.00;99196.59;1603711;88;20991;-72
2021/10/16 11:12:11;;;;;;;30.12;18.98;;;;;;;11.48;100.00;99192.19;1599137;89;21106;-63
2021/10/16 11:14:41;;;;;;;19.90;16.02;;;;;;;11.51;100.00;99195.24;1603057;89;21509;-63
2021/10/16 11:17:14;;;;;;;18.90;14.90;;;;;;;11.58;100.00;99196.94;1602339;88;21035;-63
2021/10/16 11:19:55;;;;;;;27.25;16.00;;;;;;;11.58;100.00;99196.94;1603813;88;22082;-61
2021/10/16 11:22:26;;;;;;;19.48;15.75;;;;;;;11.61;100.00;99195.59;1602445;89;21041;-63
2021/10/16 11:25:01;;;;;;;22.42;15.53;;;;;;;11.62;100.00;99196.89;1579503;89;21148;-66
2021/10/16 11:27:29;;;;;;;17.77;15.35;;;;;;;11.63;100.00;99197.33;1603580;89;21444;-63